createdAt,value
2023-01-19T00:00:47.163Z,0.00
2023-01-19T00:01:47.247Z,0.00
2023-01-19T00:02:47.446Z,0.00
2023-01-19T00:03:47.405Z,0.00
2023-01-19T00:04:47.474Z,0.00
2023-01-19T00:05:47.644Z,0.00
2023-01-19T00:06:47.608Z,0.00
2023-01-19T00:07:47.694Z,0.00
2023-01-19T00:08:47.766Z,0.00
2023-01-19T00:09:47.882Z,0.00
2023-01-19T00:10:47.948Z,0.00
2023-01-19T00:11:48.003Z,0.00
2023-01-19T00:12:48.087Z,0.00
2023-01-19T00:13:48.153Z,0.00
2023-01-19T00:14:48.241Z,0.00
2023-01-19T00:15:48.313Z,0.00
2023-01-19T00:16:48.380Z,0.00
2023-01-19T00:17:48.472Z,0.00
2023-01-19T00:18:48.545Z,0.00
2023-01-19T00:19:48.663Z,0.00
2023-01-19T00:20:48.705Z,0.00
2023-01-19T00:21:48.806Z,0.00
2023-01-19T00:22:48.875Z,0.00
2023-01-19T00:23:48.974Z,0.00
2023-01-19T00:24:49.054Z,0.00
2023-01-19T00:25:49.136Z,0.00
2023-01-19T00:26:49.211Z,0.00
2023-01-19T00:27:49.317Z,0.00
2023-01-19T00:28:49.371Z,0.00
2023-01-19T00:29:49.472Z,0.00
2023-01-19T00:30:49.539Z,0.00
2023-01-19T00:31:49.681Z,0.00
2023-01-19T00:32:49.680Z,0.00
2023-01-19T00:33:49.774Z,0.00
2023-01-19T00:34:49.847Z,0.00
2023-01-19T00:35:49.912Z,0.00
2023-01-19T00:36:49.984Z,0.00
2023-01-19T00:37:50.078Z,0.00
2023-01-19T00:38:50.141Z,0.00
2023-01-19T00:39:50.240Z,0.00
2023-01-19T00:40:50.264Z,0.00
2023-01-19T00:41:50.349Z,0.00
2023-01-19T00:42:50.423Z,0.00
2023-01-19T00:43:50.519Z,0.00
2023-01-19T00:44:50.599Z,0.00
2023-01-19T00:45:50.732Z,0.00
2023-01-19T00:46:50.766Z,0.00
2023-01-19T00:47:50.860Z,0.00
2023-01-19T00:48:50.927Z,0.00
2023-01-19T00:49:51.037Z,0.00
2023-01-19T00:50:51.110Z,0.00
2023-01-19T00:51:51.193Z,0.00
2023-01-19T00:52:51.264Z,0.00
2023-01-19T00:53:51.365Z,0.00
2023-01-19T00:54:51.446Z,0.00
2023-01-19T00:55:51.521Z,0.00
2023-01-19T00:56:51.607Z,0.00
2023-01-19T00:57:51.690Z,0.00
2023-01-19T00:58:51.768Z,0.00
2023-01-19T00:59:51.880Z,0.00
2023-01-19T01:00:52.002Z,0.00
2023-01-19T01:01:52.246Z,0.00
2023-01-19T01:02:52.151Z,0.00
2023-01-19T01:03:52.173Z,0.00
2023-01-19T01:04:52.251Z,0.00
2023-01-19T01:05:52.314Z,0.00
2023-01-19T01:06:52.389Z,0.00
2023-01-19T01:07:52.485Z,0.00
2023-01-19T01:08:52.558Z,0.00
2023-01-19T01:09:52.668Z,0.00
2023-01-19T01:10:52.707Z,0.00
2023-01-19T01:11:52.790Z,0.00
2023-01-19T01:12:57.037Z,0.00
2023-01-19T01:13:52.959Z,0.00
2023-01-19T01:14:53.040Z,0.00
2023-01-19T01:15:53.086Z,0.00
2023-01-19T01:16:53.187Z,0.00
2023-01-19T01:17:53.328Z,0.00
2023-01-19T01:18:53.305Z,0.00
2023-01-19T01:19:53.426Z,0.00
2023-01-19T01:20:56.092Z,0.00
2023-01-19T01:21:53.557Z,0.00
2023-01-19T01:22:53.668Z,0.00
2023-01-19T01:23:53.728Z,0.00
2023-01-19T01:24:53.819Z,0.00
2023-01-19T01:25:53.895Z,0.00
2023-01-19T01:26:53.957Z,0.00
2023-01-19T01:27:54.045Z,0.00
2023-01-19T01:28:54.110Z,0.00
2023-01-19T01:29:54.213Z,0.00
2023-01-19T01:30:54.278Z,0.00
2023-01-19T01:31:54.404Z,0.00
2023-01-19T01:32:54.454Z,0.00
2023-01-19T01:33:54.541Z,0.00
2023-01-19T01:34:54.624Z,0.00
2023-01-19T01:35:54.688Z,0.00
2023-01-19T01:36:54.776Z,0.00
2023-01-19T01:37:54.857Z,0.00
2023-01-19T01:38:54.921Z,0.00
2023-01-19T01:39:55.030Z,0.00
2023-01-19T01:40:55.098Z,0.00
2023-01-19T01:41:55.986Z,0.00
2023-01-19T01:42:55.246Z,0.00
2023-01-19T01:43:55.320Z,0.00
2023-01-19T01:44:55.422Z,0.00
2023-01-19T01:45:55.586Z,0.00
2023-01-19T01:46:55.528Z,0.00
2023-01-19T01:47:55.608Z,0.00
2023-01-19T01:48:55.673Z,0.00
2023-01-19T01:49:55.781Z,0.00
2023-01-19T01:50:55.815Z,0.00
2023-01-19T01:51:55.912Z,0.00
2023-01-19T01:53:06.989Z,0.00
2023-01-19T01:53:56.068Z,0.00
2023-01-19T01:54:56.172Z,0.00
2023-01-19T01:55:56.224Z,0.00
2023-01-19T01:56:56.298Z,0.00
2023-01-19T01:57:56.380Z,0.00
2023-01-19T01:58:56.454Z,0.00
2023-01-19T01:59:56.564Z,0.00
2023-01-19T02:00:56.755Z,0.00
2023-01-19T02:01:56.863Z,0.00
2023-01-19T02:02:56.841Z,0.00
2023-01-19T02:03:56.873Z,0.00
2023-01-19T02:04:56.964Z,0.00
2023-01-19T02:05:57.032Z,0.00
2023-01-19T02:06:57.100Z,0.00
2023-01-19T02:07:57.199Z,0.00
2023-01-19T02:08:57.266Z,0.00
2023-01-19T02:09:57.376Z,0.00
2023-01-19T02:10:57.427Z,0.00
2023-01-19T02:11:57.536Z,0.00
2023-01-19T02:12:58.248Z,0.00
2023-01-19T02:13:57.706Z,0.00
2023-01-19T02:14:57.779Z,0.00
2023-01-19T02:15:57.853Z,0.00
2023-01-19T02:16:58.003Z,0.00
2023-01-19T02:17:57.996Z,0.00
2023-01-19T02:18:58.066Z,0.00
2023-01-19T02:19:58.264Z,0.00
2023-01-19T02:20:58.216Z,0.00
2023-01-19T02:21:58.298Z,0.00
2023-01-19T02:22:58.814Z,0.00
2023-01-19T02:23:58.455Z,0.00
2023-01-19T02:24:58.667Z,0.00
2023-01-19T02:25:58.616Z,0.00
2023-01-19T02:26:58.684Z,0.00
2023-01-19T02:27:58.765Z,0.00
2023-01-19T02:28:58.826Z,0.00
2023-01-19T02:29:58.935Z,0.00
2023-01-19T02:30:59.020Z,0.00
2023-01-19T02:31:59.084Z,0.00
2023-01-19T02:32:59.500Z,0.00
2023-01-19T02:33:59.242Z,0.00
2023-01-19T02:34:59.326Z,0.00
2023-01-19T02:35:59.405Z,0.00
2023-01-19T02:36:59.477Z,0.00
2023-01-19T02:37:59.576Z,0.00
2023-01-19T02:38:59.651Z,0.00
2023-01-19T02:39:59.728Z,0.00
2023-01-19T02:40:59.791Z,0.00
2023-01-19T02:41:59.876Z,0.00
2023-01-19T02:43:00.267Z,0.00
2023-01-19T02:44:00.031Z,0.00
2023-01-19T02:45:00.179Z,0.00
2023-01-19T02:46:00.250Z,0.00
2023-01-19T02:47:00.317Z,0.00
2023-01-19T02:48:00.346Z,0.00
2023-01-19T02:49:00.463Z,0.00
2023-01-19T02:50:00.554Z,0.00
2023-01-19T02:51:00.583Z,0.00
2023-01-19T02:52:00.657Z,0.00
2023-01-19T02:53:01.176Z,0.00
2023-01-19T02:54:00.809Z,0.00
2023-01-19T02:55:00.921Z,0.00
2023-01-19T02:56:00.964Z,0.00
2023-01-19T02:57:01.030Z,0.00
2023-01-19T02:58:01.101Z,0.00
2023-01-19T02:59:01.206Z,0.00
2023-01-19T03:00:01.325Z,0.00
2023-01-19T03:01:01.541Z,0.00
2023-01-19T03:02:01.477Z,0.00
2023-01-19T03:03:01.876Z,0.00
2023-01-19T03:04:01.568Z,0.00
2023-01-19T03:05:01.656Z,0.00
2023-01-19T03:06:01.728Z,0.00
2023-01-19T03:07:01.798Z,0.00
2023-01-19T03:08:01.866Z,0.00
2023-01-19T03:09:01.949Z,0.00
2023-01-19T03:10:02.050Z,0.00
2023-01-19T03:11:02.113Z,0.00
2023-01-19T03:12:02.185Z,0.00
2023-01-19T03:13:02.696Z,0.00
2023-01-19T03:14:02.345Z,0.00
2023-01-19T03:15:02.458Z,0.00
2023-01-19T03:16:02.618Z,0.00
2023-01-19T03:17:02.621Z,0.00
2023-01-19T03:18:02.709Z,0.00
2023-01-19T03:19:02.825Z,0.00
2023-01-19T03:20:02.903Z,0.00
2023-01-19T03:21:02.965Z,0.00
2023-01-19T03:22:03.044Z,0.00
2023-01-19T03:23:03.582Z,0.00
2023-01-19T03:24:03.242Z,0.00
2023-01-19T03:25:03.306Z,0.00
2023-01-19T03:26:03.357Z,0.00
2023-01-19T03:27:03.428Z,0.00
2023-01-19T03:28:03.503Z,0.00
2023-01-19T03:29:03.607Z,0.00
2023-01-19T03:30:03.697Z,0.00
2023-01-19T03:31:03.885Z,0.00
2023-01-19T03:32:03.848Z,0.00
2023-01-19T03:33:03.946Z,0.00
2023-01-19T03:34:04.028Z,0.00
2023-01-19T03:35:04.138Z,0.00
2023-01-19T03:36:04.217Z,0.00
2023-01-19T03:37:04.325Z,0.00
2023-01-19T03:38:04.389Z,0.00
2023-01-19T03:39:04.484Z,0.00
2023-01-19T03:40:04.579Z,0.00
2023-01-19T03:41:04.645Z,0.00
2023-01-19T03:42:04.706Z,0.00
2023-01-19T03:43:04.778Z,0.00
2023-01-19T03:44:04.851Z,0.00
2023-01-19T03:45:04.964Z,0.00
2023-01-19T03:46:05.086Z,0.00
2023-01-19T03:47:05.099Z,0.00
2023-01-19T03:48:05.180Z,0.00
2023-01-19T03:49:05.266Z,0.00
2023-01-19T03:50:05.361Z,0.00
2023-01-19T03:51:05.431Z,0.00
2023-01-19T03:52:05.504Z,0.00
2023-01-19T03:53:05.599Z,0.00
2023-01-19T03:54:05.677Z,0.00
2023-01-19T03:55:06.048Z,0.00
2023-01-19T03:56:05.834Z,0.00
2023-01-19T03:57:05.930Z,0.00
2023-01-19T03:58:06.005Z,0.00
2023-01-19T03:59:06.103Z,0.00
2023-01-19T04:00:06.323Z,0.00
2023-01-19T04:01:06.313Z,0.00
2023-01-19T04:02:06.408Z,0.00
2023-01-19T04:03:06.439Z,0.00
2023-01-19T04:04:06.492Z,0.00
2023-01-19T04:05:06.611Z,0.00
2023-01-19T04:06:06.655Z,0.00
2023-01-19T04:07:06.745Z,0.00
2023-01-19T04:08:06.822Z,0.00
2023-01-19T04:09:06.891Z,0.00
2023-01-19T04:10:06.995Z,0.00
2023-01-19T04:11:07.055Z,0.00
2023-01-19T04:12:07.136Z,0.00
2023-01-19T04:13:07.223Z,0.00
2023-01-19T04:14:07.279Z,0.00
2023-01-19T04:15:07.396Z,0.00
2023-01-19T04:16:07.572Z,0.00
2023-01-19T04:17:07.550Z,0.00
2023-01-19T04:18:07.603Z,0.00
2023-01-19T04:19:07.703Z,0.00
2023-01-19T04:20:07.804Z,0.00
2023-01-19T04:21:07.883Z,0.00
2023-01-19T04:22:07.941Z,0.00
2023-01-19T04:23:08.039Z,0.00
2023-01-19T04:24:08.123Z,0.00
2023-01-19T04:25:08.280Z,0.00
2023-01-19T04:26:08.274Z,0.00
2023-01-19T04:27:08.379Z,0.00
2023-01-19T04:28:08.449Z,0.00
2023-01-19T04:29:08.540Z,0.00
2023-01-19T04:30:08.624Z,0.00
2023-01-19T04:31:08.712Z,0.00
2023-01-19T04:32:08.790Z,0.00
2023-01-19T04:33:08.841Z,0.00
2023-01-19T04:34:08.922Z,0.00
2023-01-19T04:35:09.029Z,0.00
2023-01-19T04:36:09.116Z,0.00
2023-01-19T04:37:09.167Z,0.00
2023-01-19T04:38:09.236Z,0.00
2023-01-19T04:39:09.330Z,0.00
2023-01-19T04:40:09.423Z,0.00
2023-01-19T04:41:09.473Z,0.00
2023-01-19T04:42:09.547Z,0.00
2023-01-19T04:43:09.645Z,0.00
2023-01-19T04:44:09.717Z,0.00
2023-01-19T04:45:09.833Z,0.00
2023-01-19T04:46:09.926Z,0.00
2023-01-19T04:47:09.958Z,0.00
2023-01-19T04:48:10.035Z,0.00
2023-01-19T04:49:10.123Z,0.00
2023-01-19T04:50:10.202Z,0.00
2023-01-19T04:51:10.264Z,0.00
2023-01-19T04:52:10.341Z,0.00
2023-01-19T04:53:10.441Z,0.00
2023-01-19T04:54:10.520Z,0.00
2023-01-19T04:55:10.623Z,0.00
2023-01-19T04:56:10.706Z,0.00
2023-01-19T04:57:10.770Z,0.00
2023-01-19T04:58:10.856Z,0.00
2023-01-19T04:59:10.945Z,0.00
2023-01-19T05:00:11.033Z,0.00
2023-01-19T05:01:11.152Z,0.00
2023-01-19T05:02:11.194Z,0.00
2023-01-19T05:03:11.377Z,0.00
2023-01-19T05:04:11.343Z,0.00
2023-01-19T05:05:11.450Z,0.00
2023-01-19T05:06:11.529Z,0.00
2023-01-19T05:07:11.630Z,0.00
2023-01-19T05:08:11.701Z,0.00
2023-01-19T05:09:11.787Z,0.00
2023-01-19T05:10:11.894Z,0.00
2023-01-19T05:11:11.949Z,0.00
2023-01-19T05:12:12.025Z,0.00
2023-01-19T05:13:12.113Z,0.00
2023-01-19T05:14:12.181Z,0.00
2023-01-19T05:15:12.287Z,0.00
2023-01-19T05:16:12.433Z,0.00
2023-01-19T05:17:12.424Z,0.00
2023-01-19T05:18:12.497Z,0.00
2023-01-19T05:19:12.593Z,0.00
2023-01-19T05:20:15.694Z,0.00
2023-01-19T05:21:12.755Z,0.00
2023-01-19T05:22:12.823Z,0.00
2023-01-19T05:23:12.908Z,0.00
2023-01-19T05:24:12.982Z,0.00
2023-01-19T05:25:13.087Z,0.00
2023-01-19T05:26:13.136Z,0.00
2023-01-19T05:27:13.216Z,0.00
2023-01-19T05:28:13.288Z,0.00
2023-01-19T05:29:13.384Z,0.00
2023-01-19T05:30:13.462Z,0.00
2023-01-19T05:31:13.703Z,0.00
2023-01-19T05:32:13.605Z,0.00
2023-01-19T05:33:13.667Z,0.00
2023-01-19T05:34:13.740Z,0.00
2023-01-19T05:35:13.897Z,0.00
2023-01-19T05:36:13.888Z,0.00
2023-01-19T05:37:13.985Z,0.00
2023-01-19T05:38:15.664Z,0.00
2023-01-19T05:39:14.144Z,0.00
2023-01-19T05:40:14.235Z,0.00
2023-01-19T05:41:14.302Z,0.00
2023-01-19T05:42:14.384Z,0.00
2023-01-19T05:43:14.466Z,0.00
2023-01-19T05:44:14.561Z,0.00
2023-01-19T05:45:14.620Z,0.00
2023-01-19T05:46:14.815Z,0.00
2023-01-19T05:47:14.763Z,0.00
2023-01-19T05:48:14.830Z,0.00
2023-01-19T05:49:14.928Z,0.00
2023-01-19T05:50:15.010Z,0.00
2023-01-19T05:51:15.087Z,0.00
2023-01-19T05:52:15.181Z,0.00
2023-01-19T05:53:15.250Z,0.00
2023-01-19T05:54:15.333Z,0.00
2023-01-19T05:55:15.590Z,0.00
2023-01-19T05:56:15.494Z,0.00
2023-01-19T05:57:15.579Z,0.00
2023-01-19T05:58:15.665Z,0.00
2023-01-19T05:59:15.777Z,0.00
2023-01-19T06:00:15.837Z,0.00
2023-01-19T06:01:15.927Z,0.00
2023-01-19T06:02:16.014Z,0.00
2023-01-19T06:03:16.103Z,0.00
2023-01-19T06:04:16.119Z,0.00
2023-01-19T06:05:16.203Z,0.00
2023-01-19T06:06:16.279Z,0.00
2023-01-19T06:07:16.351Z,0.00
2023-01-19T06:08:16.448Z,0.00
2023-01-19T06:09:16.529Z,0.00
2023-01-19T06:10:16.645Z,0.00
2023-01-19T06:11:16.699Z,0.00
2023-01-19T06:12:16.782Z,0.00
2023-01-19T06:13:16.862Z,0.00
2023-01-19T06:14:16.966Z,0.00
2023-01-19T06:15:17.046Z,0.00
2023-01-19T06:16:17.210Z,0.00
2023-01-19T06:17:17.198Z,0.00
2023-01-19T06:18:17.295Z,0.00
2023-01-19T06:19:17.368Z,0.00
2023-01-19T06:20:17.492Z,0.00
2023-01-19T06:21:17.525Z,0.00
2023-01-19T06:22:17.593Z,0.00
2023-01-19T06:23:17.666Z,0.00
2023-01-19T06:24:17.749Z,0.00
2023-01-19T06:25:17.845Z,0.00
2023-01-19T06:26:17.912Z,0.00
2023-01-19T06:27:17.982Z,0.00
2023-01-19T06:28:18.065Z,0.00
2023-01-19T06:29:18.137Z,0.00
2023-01-19T06:30:18.249Z,0.00
2023-01-19T06:31:18.374Z,0.00
2023-01-19T06:32:18.400Z,0.00
2023-01-19T06:33:18.478Z,0.00
2023-01-19T06:34:18.563Z,0.00
2023-01-19T06:35:18.649Z,0.00
2023-01-19T06:36:18.718Z,0.00
2023-01-19T06:37:18.786Z,0.00
2023-01-19T06:38:19.008Z,0.00
2023-01-19T06:39:18.925Z,0.00
2023-01-19T06:40:19.034Z,0.00
2023-01-19T06:41:19.086Z,0.00
2023-01-19T06:42:19.177Z,0.00
2023-01-19T06:43:19.274Z,0.00
2023-01-19T06:44:19.385Z,0.00
2023-01-19T06:45:19.396Z,0.00
2023-01-19T06:46:19.464Z,0.00
2023-01-19T06:47:19.537Z,0.00
2023-01-19T06:48:19.637Z,0.00
2023-01-19T06:49:19.709Z,0.00
2023-01-19T06:50:19.837Z,0.00
2023-01-19T06:51:19.889Z,0.00
2023-01-19T06:52:19.996Z,0.00
2023-01-19T06:53:20.062Z,0.00
2023-01-19T06:54:20.145Z,0.00
2023-01-19T06:55:20.237Z,0.00
2023-01-19T06:56:20.294Z,0.00
2023-01-19T06:57:20.349Z,0.00
2023-01-19T06:58:20.448Z,4.00
2023-01-19T06:59:20.519Z,4.00
2023-01-19T07:00:20.624Z,0.00
2023-01-19T07:01:20.795Z,4.00
2023-01-19T07:02:27.952Z,4.00
2023-01-19T07:03:20.991Z,4.00
2023-01-19T07:04:20.928Z,4.00
2023-01-19T07:05:21.040Z,8.00
2023-01-19T07:06:21.106Z,4.00
2023-01-19T07:07:21.217Z,8.00
2023-01-19T07:08:21.276Z,8.00
2023-01-19T07:09:21.350Z,8.00
2023-01-19T07:10:21.453Z,12.00
2023-01-19T07:11:26.985Z,12.00
2023-01-19T07:12:21.583Z,16.00
2023-01-19T07:13:21.680Z,16.00
2023-01-19T07:14:21.743Z,24.00
2023-01-19T07:15:21.869Z,24.00
2023-01-19T07:16:22.059Z,28.00
2023-01-19T07:17:22.007Z,28.00
2023-01-19T07:18:22.080Z,32.00
2023-01-19T07:19:22.174Z,36.00
2023-01-19T07:20:22.272Z,40.00
2023-01-19T07:21:22.334Z,44.00
2023-01-19T07:22:22.408Z,44.00
2023-01-19T07:23:22.487Z,48.00
2023-01-19T07:24:22.696Z,52.00
2023-01-19T07:25:22.671Z,60.00
2023-01-19T07:26:22.741Z,68.00
2023-01-19T07:27:22.841Z,72.00
2023-01-19T07:28:22.919Z,72.00
2023-01-19T07:29:23.008Z,80.00
2023-01-19T07:30:23.092Z,88.00
2023-01-19T07:31:23.313Z,104.00
2023-01-19T07:32:23.215Z,120.00
2023-01-19T07:33:23.304Z,144.00
2023-01-19T07:34:23.373Z,160.00
2023-01-19T07:35:23.468Z,176.00
2023-01-19T07:36:23.566Z,176.00
2023-01-19T07:37:23.620Z,160.00
2023-01-19T07:38:23.695Z,168.00
2023-01-19T07:39:23.760Z,180.00
2023-01-19T07:40:24.084Z,200.00
2023-01-19T07:41:23.910Z,216.00
2023-01-19T07:42:23.989Z,220.00
2023-01-19T07:43:24.075Z,220.00
2023-01-19T07:44:24.142Z,220.00
2023-01-19T07:45:24.255Z,236.00
2023-01-19T07:46:24.379Z,264.00
2023-01-19T07:47:24.394Z,300.00
2023-01-19T07:48:24.466Z,296.00
2023-01-19T07:49:24.553Z,312.00
2023-01-19T07:50:24.634Z,320.00
2023-01-19T07:51:24.714Z,336.00
2023-01-19T07:52:24.780Z,348.00
2023-01-19T07:53:24.865Z,352.00
2023-01-19T07:54:24.944Z,340.00
2023-01-19T07:55:25.050Z,348.00
2023-01-19T07:56:25.083Z,356.00
2023-01-19T07:57:25.184Z,364.00
2023-01-19T07:58:25.260Z,388.00
2023-01-19T07:59:25.333Z,392.00
2023-01-19T08:00:25.568Z,452.00
2023-01-19T08:01:25.537Z,500.00
2023-01-19T08:02:25.603Z,544.00
2023-01-19T08:03:25.628Z,596.00
2023-01-19T08:04:25.716Z,664.00
2023-01-19T08:05:25.784Z,704.00
2023-01-19T08:06:25.852Z,716.00
2023-01-19T08:07:25.947Z,728.00
2023-01-19T08:08:26.021Z,756.00
2023-01-19T08:09:26.122Z,784.00
2023-01-19T08:10:26.216Z,760.00
2023-01-19T08:11:26.300Z,784.00
2023-01-19T08:12:26.354Z,816.00
2023-01-19T08:13:26.455Z,840.00
2023-01-19T08:14:26.526Z,876.00
2023-01-19T08:15:26.709Z,912.00
2023-01-19T08:16:26.682Z,932.00
2023-01-19T08:17:26.784Z,968.00
2023-01-19T08:18:26.840Z,1024.00
2023-01-19T08:19:26.914Z,1088.00
2023-01-19T08:20:27.022Z,1132.00
2023-01-19T08:21:27.109Z,1184.00
2023-01-19T08:22:27.149Z,1240.00
2023-01-19T08:23:27.249Z,1292.00
2023-01-19T08:24:27.321Z,1324.00
2023-01-19T08:25:27.448Z,1352.00
2023-01-19T08:26:27.536Z,1400.00
2023-01-19T08:27:27.611Z,1436.00
2023-01-19T08:28:27.650Z,1544.00
2023-01-19T08:29:27.731Z,1616.00
2023-01-19T08:30:27.807Z,1684.00
2023-01-19T08:31:27.986Z,1744.00
2023-01-19T08:32:28.007Z,1800.00
2023-01-19T08:33:28.013Z,1836.00
2023-01-19T08:34:28.107Z,1872.00
2023-01-19T08:35:28.218Z,1908.00
2023-01-19T08:36:28.302Z,1928.00
2023-01-19T08:37:28.384Z,1944.00
2023-01-19T08:38:28.451Z,1956.00
2023-01-19T08:39:28.556Z,1984.00
2023-01-19T08:40:28.723Z,2020.00
2023-01-19T08:41:28.708Z,2052.00
2023-01-19T08:42:28.771Z,2036.00
2023-01-19T08:43:28.874Z,1968.00
2023-01-19T08:44:28.982Z,1916.00
2023-01-19T08:45:29.041Z,1904.00
2023-01-19T08:46:29.140Z,1880.00
2023-01-19T08:47:29.341Z,1880.00
2023-01-19T08:48:29.258Z,1868.00
2023-01-19T08:49:29.361Z,1968.00
2023-01-19T08:50:29.439Z,2172.00
2023-01-19T08:51:29.495Z,2400.00
2023-01-19T08:52:29.581Z,2604.00
2023-01-19T08:53:29.674Z,2808.00
2023-01-19T08:54:29.756Z,2964.00
2023-01-19T08:55:29.880Z,3084.00
2023-01-19T08:56:29.912Z,3168.00
2023-01-19T08:57:30.039Z,3240.00
2023-01-19T08:58:30.097Z,3284.00
2023-01-19T08:59:30.213Z,3320.00
2023-01-19T09:00:30.271Z,3340.00
2023-01-19T09:01:30.364Z,3344.00
2023-01-19T09:02:30.611Z,3384.00
2023-01-19T09:03:30.479Z,3584.00
2023-01-19T09:04:30.555Z,3800.00
2023-01-19T09:05:30.658Z,3956.00
2023-01-19T09:06:30.731Z,3952.00
2023-01-19T09:07:32.569Z,3912.00
2023-01-19T09:08:30.900Z,3812.00
2023-01-19T09:09:30.974Z,3528.00
2023-01-19T09:10:31.069Z,3296.00
2023-01-19T09:11:31.160Z,3180.00
2023-01-19T09:12:31.222Z,3064.00
2023-01-19T09:13:31.317Z,2816.00
2023-01-19T09:14:31.375Z,2692.00
2023-01-19T09:15:31.452Z,2428.00
2023-01-19T09:16:31.484Z,2092.00
2023-01-19T09:17:31.578Z,1960.00
2023-01-19T09:18:31.645Z,2096.00
2023-01-19T09:19:32.900Z,2240.00
2023-01-19T09:20:31.799Z,2328.00
2023-01-19T09:21:31.872Z,2552.00
2023-01-19T09:22:31.940Z,2716.00
2023-01-19T09:23:32.019Z,2992.00
2023-01-19T09:24:32.090Z,3064.00
2023-01-19T09:25:32.202Z,3060.00
2023-01-19T09:26:33.304Z,3140.00
2023-01-19T09:27:32.358Z,3172.00
2023-01-19T09:28:32.427Z,3152.00
2023-01-19T09:29:32.502Z,3124.00
2023-01-19T09:30:32.661Z,2852.00
2023-01-19T09:31:32.678Z,2420.00
2023-01-19T09:32:32.741Z,2296.00
2023-01-19T09:33:32.827Z,2304.00
2023-01-19T09:34:32.901Z,2296.00
2023-01-19T09:35:32.985Z,2300.00
2023-01-19T09:36:33.040Z,2372.00
2023-01-19T09:37:33.157Z,2420.00
2023-01-19T09:38:33.329Z,2380.00
2023-01-19T09:39:33.338Z,2236.00
2023-01-19T09:40:33.376Z,2056.00
2023-01-19T09:41:33.438Z,2024.00
2023-01-19T09:42:33.507Z,2044.00
2023-01-19T09:43:33.604Z,2012.00
2023-01-19T09:44:33.675Z,2092.00
2023-01-19T09:45:33.781Z,2316.00
2023-01-19T09:46:33.890Z,2448.00
2023-01-19T09:47:33.926Z,2524.00
2023-01-19T09:48:33.996Z,2536.00
2023-01-19T09:49:34.075Z,2460.00
2023-01-19T09:50:34.144Z,2388.00
2023-01-19T09:51:34.230Z,2420.00
2023-01-19T09:52:34.304Z,2356.00
2023-01-19T09:53:34.408Z,2276.00
2023-01-19T09:54:34.478Z,2316.00
2023-01-19T09:55:34.594Z,2356.00
2023-01-19T09:56:34.645Z,2272.00
2023-01-19T09:57:34.734Z,2164.00
2023-01-19T09:58:34.808Z,2100.00
2023-01-19T09:59:35.012Z,2092.00
2023-01-19T10:00:35.060Z,2076.00
2023-01-19T10:01:35.558Z,2140.00
2023-01-19T10:02:35.252Z,2328.00
2023-01-19T10:03:35.214Z,2424.00
2023-01-19T10:04:35.298Z,2592.00
2023-01-19T10:05:35.388Z,2884.00
2023-01-19T10:06:35.417Z,3100.00
2023-01-19T10:07:35.516Z,3112.00
2023-01-19T10:08:35.591Z,3036.00
2023-01-19T10:09:35.697Z,3180.00
2023-01-19T10:10:35.777Z,3512.00
2023-01-19T10:11:51.511Z,3676.00
2023-01-19T10:12:35.923Z,3660.00
2023-01-19T10:13:35.987Z,3484.00
2023-01-19T10:14:36.054Z,3296.00
2023-01-19T10:15:36.191Z,3032.00
2023-01-19T10:16:36.211Z,2732.00
2023-01-19T10:17:36.313Z,2624.00
2023-01-19T10:18:36.413Z,2616.00
2023-01-19T10:19:36.458Z,2488.00
2023-01-19T10:20:36.552Z,2604.00
2023-01-19T10:21:36.634Z,2792.00
2023-01-19T10:22:36.673Z,2676.00
2023-01-19T10:23:36.750Z,2600.00
2023-01-19T10:24:36.835Z,2484.00
2023-01-19T10:25:36.983Z,2184.00
2023-01-19T10:26:37.023Z,1916.00
2023-01-19T10:27:37.077Z,1824.00
2023-01-19T10:28:37.149Z,1828.00
2023-01-19T10:29:37.300Z,1840.00
2023-01-19T10:30:37.374Z,1940.00
2023-01-19T10:31:37.602Z,1988.00
2023-01-19T10:32:37.514Z,2052.00
2023-01-19T10:33:37.643Z,2140.00
2023-01-19T10:34:37.691Z,2048.00
2023-01-19T10:35:37.802Z,2064.00
2023-01-19T10:36:37.883Z,2260.00
2023-01-19T10:37:37.973Z,2488.00
2023-01-19T10:38:38.028Z,2600.00
2023-01-19T10:39:38.917Z,2812.00
2023-01-19T10:40:38.194Z,2944.00
2023-01-19T10:41:38.229Z,2820.00
2023-01-19T10:42:38.447Z,2796.00
2023-01-19T10:43:38.407Z,2876.00
2023-01-19T10:44:38.502Z,2924.00
2023-01-19T10:45:38.631Z,2960.00
2023-01-19T10:46:38.666Z,3068.00
2023-01-19T10:47:38.813Z,3160.00
2023-01-19T10:48:38.785Z,3148.00
2023-01-19T10:49:38.905Z,3076.00
2023-01-19T10:50:39.014Z,3116.00
2023-01-19T10:51:39.077Z,3236.00
2023-01-19T10:52:39.166Z,3388.00
2023-01-19T10:53:39.259Z,3460.00
2023-01-19T10:54:39.286Z,3496.00
2023-01-19T10:55:39.408Z,3584.00
2023-01-19T10:56:39.474Z,3580.00
2023-01-19T10:57:39.523Z,3536.00
2023-01-19T10:58:39.570Z,3600.00
2023-01-19T10:59:39.643Z,3656.00
2023-01-19T11:00:40.127Z,3724.00
2023-01-19T11:01:39.870Z,4132.00
2023-01-19T11:02:39.937Z,4476.00
2023-01-19T11:03:40.012Z,4352.00
2023-01-19T11:04:40.090Z,4020.00
2023-01-19T11:05:40.100Z,4048.00
2023-01-19T11:06:40.172Z,4132.00
2023-01-19T11:07:40.246Z,4000.00
2023-01-19T11:08:40.317Z,4108.00
2023-01-19T11:09:40.419Z,4232.00
2023-01-19T11:10:40.509Z,4552.00
2023-01-19T11:11:40.588Z,4492.00
2023-01-19T11:12:40.659Z,4216.00
2023-01-19T11:13:40.762Z,4112.00
2023-01-19T11:14:40.833Z,4164.00
2023-01-19T11:15:40.948Z,4300.00
2023-01-19T11:16:41.046Z,4328.00
2023-01-19T11:17:41.091Z,4372.00
2023-01-19T11:18:41.178Z,4532.00
2023-01-19T11:19:41.254Z,4676.00
2023-01-19T11:20:41.368Z,4732.00
2023-01-19T11:21:41.403Z,4536.00
2023-01-19T11:22:41.502Z,4544.00
2023-01-19T11:23:41.561Z,4624.00
2023-01-19T11:24:41.659Z,4688.00
2023-01-19T11:25:41.762Z,4740.00
2023-01-19T11:26:41.832Z,4808.00
2023-01-19T11:27:41.904Z,4864.00
2023-01-19T11:28:44.801Z,4920.00
2023-01-19T11:29:42.099Z,5016.00
2023-01-19T11:30:42.237Z,5296.00
2023-01-19T11:31:42.310Z,5452.00
2023-01-19T11:32:42.390Z,5532.00
2023-01-19T11:33:42.448Z,5580.00
2023-01-19T11:34:42.546Z,5688.00
2023-01-19T11:35:42.629Z,5856.00
2023-01-19T11:36:42.689Z,5912.00
2023-01-19T11:37:42.770Z,5920.00
2023-01-19T11:38:42.846Z,5924.00
2023-01-19T11:39:42.917Z,5908.00
2023-01-19T11:40:43.042Z,5960.00
2023-01-19T11:41:43.099Z,5976.00
2023-01-19T11:42:43.203Z,6048.00
2023-01-19T11:43:49.023Z,6196.00
2023-01-19T11:44:43.356Z,6128.00
2023-01-19T11:45:43.466Z,6508.00
2023-01-19T11:46:43.517Z,6740.00
2023-01-19T11:47:43.598Z,6956.00
2023-01-19T11:48:43.698Z,7100.00
2023-01-19T11:49:43.782Z,7052.00
2023-01-19T11:50:43.877Z,6848.00
2023-01-19T11:51:43.934Z,6504.00
2023-01-19T11:52:44.049Z,6128.00
2023-01-19T11:53:44.107Z,5816.00
2023-01-19T11:54:44.209Z,5552.00
2023-01-19T11:55:44.281Z,5380.00
2023-01-19T11:56:44.352Z,5420.00
2023-01-19T11:57:44.425Z,5188.00
2023-01-19T11:58:44.525Z,5652.00
2023-01-19T11:59:44.612Z,5480.00
2023-01-19T12:00:44.683Z,5656.00
2023-01-19T12:01:44.752Z,6780.00
2023-01-19T12:02:44.830Z,6864.00
2023-01-19T12:03:44.980Z,6884.00
2023-01-19T12:04:44.998Z,7276.00
2023-01-19T12:05:47.913Z,7604.00
2023-01-19T12:06:45.168Z,7784.00
2023-01-19T12:07:45.242Z,8348.00
2023-01-19T12:08:45.310Z,7508.00
2023-01-19T12:09:45.392Z,6836.00
2023-01-19T12:10:45.486Z,6780.00
2023-01-19T12:11:45.524Z,6652.00
2023-01-19T12:12:45.618Z,6256.00
2023-01-19T12:13:45.693Z,6136.00
2023-01-19T12:14:45.766Z,6620.00
2023-01-19T12:15:45.874Z,6468.00
2023-01-19T12:16:45.978Z,6048.00
2023-01-19T12:17:46.007Z,6228.00
2023-01-19T12:18:46.074Z,6532.00
2023-01-19T12:19:46.146Z,6448.00
2023-01-19T12:20:46.227Z,6248.00
2023-01-19T12:21:46.301Z,6044.00
2023-01-19T12:22:46.397Z,6792.00
2023-01-19T12:23:46.461Z,6864.00
2023-01-19T12:24:46.555Z,6836.00
2023-01-19T12:25:46.639Z,6572.00
2023-01-19T12:26:46.729Z,6512.00
2023-01-19T12:27:46.789Z,6508.00
2023-01-19T12:28:46.896Z,7080.00
2023-01-19T12:29:47.043Z,7520.00
2023-01-19T12:30:47.143Z,7736.00
2023-01-19T12:31:47.213Z,7164.00
2023-01-19T12:32:47.187Z,6984.00
2023-01-19T12:33:47.255Z,7524.00
2023-01-19T12:34:47.346Z,6656.00
2023-01-19T12:35:47.427Z,6356.00
2023-01-19T12:36:47.506Z,6664.00
2023-01-19T12:37:47.574Z,7776.00
2023-01-19T12:38:47.679Z,7500.00
2023-01-19T12:39:47.727Z,6872.00
2023-01-19T12:40:47.831Z,6448.00
2023-01-19T12:41:47.907Z,5700.00
2023-01-19T12:42:48.000Z,6088.00
2023-01-19T12:43:48.083Z,5800.00
2023-01-19T12:44:48.174Z,5696.00
2023-01-19T12:45:48.349Z,4944.00
2023-01-19T12:46:48.334Z,5000.00
2023-01-19T12:47:52.610Z,5332.00
2023-01-19T12:48:48.502Z,5372.00